Time;durP1;ratioP1;P1;durP2;ratioP2;P2;SDS_P1;SDS_P2;PMS_P1;PMS_P2;Temp;Humidity;BMP_temperature;BMP_pressure;BME280_temperature;BME280_humidity;BME280_pressure;Samples;Min_cycle;Max_cycle;Signal;HPM_P1;HPM_P2
2022/02/23 00:00:16;;;;;;;10.27;4.40;;;8.00;99.90;;;;;;5051887;28;20206;-69
2022/02/23 00:02:41;;;;;;;13.30;4.40;;;8.00;99.90;;;;;;5052488;28;20431;-69
2022/02/23 00:05:07;;;;;;;9.07;3.67;;;7.90;99.90;;;;;;5051747;28;20406;-69
2022/02/23 00:07:33;;;;;;;7.83;3.50;;;7.80;99.90;;;;;;5051500;28;20196;-69
2022/02/23 00:09:58;;;;;;;6.43;3.57;;;7.80;99.90;;;;;;5052005;28;20410;-69
2022/02/23 00:12:24;;;;;;;10.67;3.63;;;7.80;99.90;;;;;;5051428;28;20175;-68
2022/02/23 00:14:49;;;;;;;15.53;3.80;;;7.80;99.90;;;;;;5051284;28;20272;-70
2022/02/23 00:17:15;;;;;;;14.13;4.37;;;7.70;99.90;;;;;;5051713;28;20197;-69
2022/02/23 00:19:40;;;;;;;8.47;4.43;;;7.60;99.90;;;;;;5051798;28;20723;-68
2022/02/23 00:22:06;;;;;;;11.63;3.07;;;7.60;99.90;;;;;;5051580;28;20184;-69
2022/02/23 00:24:31;;;;;;;8.90;4.00;;;7.50;99.90;;;;;;5052897;28;20175;-69
2022/02/23 00:26:57;;;;;;;12.07;5.73;;;7.60;99.90;;;;;;5051874;28;20240;-69
2022/02/23 00:29:22;;;;;;;9.27;3.80;;;7.60;99.90;;;;;;5051761;28;20236;-68
2022/02/23 00:31:48;;;;;;;6.80;3.50;;;7.50;99.90;;;;;;5051602;28;20672;-69
2022/02/23 00:34:13;;;;;;;8.30;3.60;;;7.40;99.90;;;;;;5051829;28;20170;-69
2022/02/23 00:36:40;;;;;;;9.33;4.00;;;7.30;99.90;;;;;;5052295;28;20269;-68
2022/02/23 00:39:06;;;;;;;9.60;3.57;;;7.20;99.90;;;;;;5066355;28;20195;-69
2022/02/23 00:41:31;;;;;;;9.70;3.80;;;7.20;99.90;;;;;;5075702;28;20771;-68
2022/02/23 00:43:57;;;;;;;12.27;3.33;;;7.30;99.90;;;;;;5075747;28;20175;-68
2022/02/23 00:46:22;;;;;;;6.57;2.97;;;7.30;99.90;;;;;;5075450;28;20272;-69
2022/02/23 00:48:48;;;;;;;8.07;3.60;;;7.30;99.90;;;;;;5073877;28;20190;-69
2022/02/23 00:51:13;;;;;;;11.20;4.00;;;7.30;99.90;;;;;;5075712;28;20174;-68
2022/02/23 00:53:39;;;;;;;6.63;3.27;;;7.30;99.90;;;;;;5075011;28;20180;-69
2022/02/23 00:56:04;;;;;;;8.80;3.30;;;7.30;99.90;;;;;;5075248;28;20182;-69
2022/02/23 00:58:30;;;;;;;9.30;3.30;;;7.20;99.90;;;;;;5074502;28;20301;-68
2022/02/23 01:00:56;;;;;;;10.70;3.37;;;7.10;99.90;;;;;;5073757;28;20267;-69
2022/02/23 01:03:21;;;;;;;13.03;3.53;;;7.10;99.90;;;;;;5074788;28;20225;-69
2022/02/23 01:05:47;;;;;;;6.80;3.17;;;7.10;99.90;;;;;;5075151;28;20214;-69
2022/02/23 01:08:13;;;;;;;14.13;3.43;;;7.10;99.90;;;;;;5074733;28;20698;-69
2022/02/23 01:10:38;;;;;;;11.47;3.57;;;7.10;99.90;;;;;;5073012;28;20587;-68
2022/02/23 01:13:04;;;;;;;7.30;3.30;;;7.10;99.90;;;;;;5056518;28;20188;-69
2022/02/23 01:15:29;;;;;;;6.53;2.73;;;7.10;99.90;;;;;;5074863;28;20184;-70
2022/02/23 01:17:55;;;;;;;7.30;3.83;;;7.10;99.90;;;;;;5074734;28;20196;-69
2022/02/23 01:20:21;;;;;;;14.70;3.60;;;7.10;99.90;;;;;;5072936;28;20278;-68
2022/02/23 01:22:46;;;;;;;8.77;3.37;;;7.10;99.90;;;;;;5073977;28;20675;-69
2022/02/23 01:25:12;;;;;;;10.60;3.67;;;7.00;99.90;;;;;;5074590;28;20178;-69
2022/02/23 01:27:38;;;;;;;7.90;3.73;;;7.00;99.90;;;;;;5074659;28;20196;-69
2022/02/23 01:30:05;;;;;;;11.63;3.60;;;7.00;99.90;;;;;;5074396;28;20191;-69
2022/02/23 01:32:31;;;;;;;7.33;3.20;;;7.00;99.90;;;;;;5072413;28;20460;-68
2022/02/23 01:34:56;;;;;;;5.27;2.60;;;7.00;99.90;;;;;;5074174;28;20779;-69
2022/02/23 01:37:22;;;;;;;8.30;3.30;;;7.00;99.90;;;;;;5073997;28;20218;-68
2022/02/23 01:39:49;;;;;;;11.43;3.60;;;7.00;99.90;;;;;;5074176;28;20214;-69
2022/02/23 01:42:15;;;;;;;10.23;3.50;;;6.90;99.90;;;;;;5072259;28;20664;-69
2022/02/23 01:44:41;;;;;;;11.57;3.50;;;7.00;99.90;;;;;;5073964;28;20434;-69
2022/02/23 01:47:06;;;;;;;6.77;3.23;;;6.90;99.90;;;;;;5074156;28;20434;-68
2022/02/23 01:49:32;;;;;;;9.53;4.73;;;6.90;99.90;;;;;;5074179;28;20592;-68
2022/02/23 01:51:58;;;;;;;10.83;3.90;;;6.90;99.90;;;;;;5070879;28;20194;-68
2022/02/23 01:54:23;;;;;;;13.73;4.03;;;6.80;99.90;;;;;;5073884;28;20197;-70
2022/02/23 01:56:49;;;;;;;9.13;3.10;;;6.80;99.90;;;;;;5073939;28;20695;-69
2022/02/23 01:59:14;;;;;;;16.03;3.90;;;6.80;99.90;;;;;;5073549;28;20607;-70
2022/02/23 02:01:40;;;;;;;11.60;3.97;;;6.90;99.90;;;;;;5073562;28;20184;-68
2022/02/23 02:04:05;;;;;;;8.77;3.40;;;6.70;99.90;;;;;;5072127;28;20557;-69
2022/02/23 02:06:31;;;;;;;7.83;3.07;;;6.80;99.90;;;;;;5054934;28;20566;-68
2022/02/23 02:08:56;;;;;;;6.90;4.33;;;6.80;99.90;;;;;;5053755;28;20560;-69
2022/02/23 02:11:22;;;;;;;8.07;3.77;;;6.80;99.90;;;;;;5053660;28;20172;-69
2022/02/23 02:13:47;;;;;;;12.40;4.20;;;6.80;99.90;;;;;;5054852;28;20237;-68
2022/02/23 02:16:13;;;;;;;8.87;3.80;;;6.70;99.90;;;;;;5053739;28;20199;-69
2022/02/23 02:18:38;;;;;;;8.17;3.00;;;6.70;99.90;;;;;;5065258;28;20200;-69
2022/02/23 02:21:04;;;;;;;12.33;3.40;;;6.70;99.90;;;;;;5073296;28;20262;-69
2022/02/23 02:23:30;;;;;;;15.23;4.30;;;6.60;99.90;;;;;;5073171;28;20178;-69
2022/02/23 02:25:55;;;;;;;7.40;3.60;;;6.50;99.90;;;;;;5053634;28;20211;-69
2022/02/23 02:28:21;;;;;;;11.83;3.50;;;6.50;99.90;;;;;;5053322;28;20187;-68
2022/02/23 02:30:46;;;;;;;10.20;3.03;;;6.40;99.90;;;;;;5053294;28;20203;-69
2022/02/23 02:33:12;;;;;;;12.30;3.30;;;6.40;99.90;;;;;;5053106;28;20176;-69
2022/02/23 02:35:38;;;;;;;9.83;3.93;;;6.40;99.90;;;;;;5054026;28;20180;-69
2022/02/23 02:38:05;;;;;;;8.00;3.13;;;6.40;99.90;;;;;;5052894;28;20204;-69
2022/02/23 02:40:34;;;;;;;7.90;3.40;;;6.40;99.90;;;;;;5053330;28;20546;-69
2022/02/23 02:43:03;;;;;;;10.23;3.17;;;6.50;99.90;;;;;;5052819;28;20517;-69
2022/02/23 02:45:28;;;;;;;9.30;4.03;;;6.40;99.90;;;;;;5052833;28;20931;-69
2022/02/23 02:47:54;;;;;;;13.90;4.37;;;6.30;99.90;;;;;;5052668;28;20466;-69
2022/02/23 02:50:19;;;;;;;8.80;4.40;;;6.30;99.90;;;;;;5072184;28;20214;-68
2022/02/23 02:52:45;;;;;;;8.00;3.40;;;6.30;99.90;;;;;;5072470;28;20256;-69
2022/02/23 02:55:10;;;;;;;13.27;3.80;;;6.20;99.90;;;;;;5072934;28;20171;-69
2022/02/23 02:57:38;;;;;;;8.90;3.80;;;6.20;99.90;;;;;;5072895;28;20203;-69
2022/02/23 03:00:08;;;;;;;7.50;3.03;;;6.20;99.90;;;;;;5071022;28;20202;-69
2022/02/23 03:02:34;;;;;;;9.07;3.10;;;6.20;99.90;;;;;;5072252;28;20464;-69
2022/02/23 03:05:00;;;;;;;13.43;4.70;;;6.20;99.90;;;;;;5072700;28;20414;-68
2022/02/23 03:07:26;;;;;;;9.70;3.50;;;6.20;99.90;;;;;;5072594;28;20436;-68
2022/02/23 03:09:52;;;;;;;14.67;4.30;;;6.20;99.90;;;;;;5070761;28;20461;-69
2022/02/23 03:12:19;;;;;;;6.80;3.67;;;6.10;99.90;;;;;;5072270;28;20452;-69
2022/02/23 03:14:45;;;;;;;17.37;3.77;;;6.10;99.90;;;;;;5072821;28;20626;-69
2022/02/23 03:17:11;;;;;;;14.43;3.97;;;6.00;99.90;;;;;;5072223;28;20528;-69
2022/02/23 03:19:36;;;;;;;9.87;3.50;;;6.10;99.90;;;;;;5072274;28;20468;-69
2022/02/23 03:22:02;;;;;;;9.40;3.17;;;6.10;99.90;;;;;;5070504;28;20718;-69
2022/02/23 03:24:27;;;;;;;10.43;3.90;;;6.10;99.90;;;;;;5072420;28;20179;-69
2022/02/23 03:26:53;;;;;;;6.20;3.03;;;6.00;99.90;;;;;;5072165;28;20195;-69
2022/02/23 03:29:18;;;;;;;14.83;5.30;;;6.00;99.90;;;;;;5071982;28;20232;-69
2022/02/23 03:31:44;;;;;;;11.10;4.13;;;5.90;99.90;;;;;;5070188;28;20183;-69
2022/02/23 03:34:09;;;;;;;9.53;3.87;;;5.90;99.90;;;;;;5072149;28;20776;-69
2022/02/23 03:36:35;;;;;;;13.03;3.83;;;5.80;99.90;;;;;;5071909;28;20210;-68
2022/02/23 03:39:00;;;;;;;15.57;3.70;;;5.70;99.90;;;;;;5072011;28;20203;-69
2022/02/23 03:41:26;;;;;;;10.50;3.50;;;5.70;99.90;;;;;;5070186;28;20175;-68
2022/02/23 03:43:51;;;;;;;8.27;3.20;;;5.70;99.90;;;;;;5071575;28;20562;-68
2022/02/23 03:46:17;;;;;;;9.93;4.07;;;5.80;99.90;;;;;;5071870;28;20199;-69
2022/02/23 03:48:43;;;;;;;6.90;2.80;;;5.70;99.90;;;;;;5072128;28;20190;-69
2022/02/23 03:51:09;;;;;;;13.40;4.00;;;5.70;99.90;;;;;;5072078;28;20261;-69
2022/02/23 03:53:34;;;;;;;12.40;3.67;;;5.60;99.90;;;;;;5069861;28;20864;-69
2022/02/23 03:56:00;;;;;;;11.47;3.50;;;5.50;99.90;;;;;;5071811;28;20496;-68
2022/02/23 03:58:26;;;;;;;7.50;3.10;;;5.50;99.90;;;;;;5071966;28;20244;-68
2022/02/23 04:00:51;;;;;;;12.00;3.50;;;5.50;99.90;;;;;;5071767;28;20179;-68
2022/02/23 04:03:17;;;;;;;8.17;3.57;;;5.50;99.90;;;;;;5046776;28;20184;-69
2022/02/23 04:05:43;;;;;;;6.30;3.20;;;5.50;99.90;;;;;;5051269;28;20539;-69
2022/02/23 04:08:09;;;;;;;8.60;2.90;;;5.50;99.90;;;;;;5051802;28;20230;-68
2022/02/23 04:10:35;;;;;;;11.50;3.30;;;5.50;99.90;;;;;;5051777;28;20450;-68
2022/02/23 04:13:02;;;;;;;9.90;3.60;;;5.50;99.90;;;;;;5051158;28;20728;-69
2022/02/23 04:15:28;;;;;;;8.33;3.20;;;5.60;99.90;;;;;;5051959;28;20862;-68
2022/02/23 04:17:53;;;;;;;8.47;4.57;;;5.60;99.90;;;;;;5051285;28;20442;-69
2022/02/23 04:20:19;;;;;;;11.83;4.50;;;5.60;99.90;;;;;;5051314;28;20686;-68
2022/02/23 04:22:45;;;;;;;12.13;3.20;;;5.60;99.90;;;;;;5051229;28;20225;-68
2022/02/23 04:25:11;;;;;;;9.83;3.10;;;5.70;99.90;;;;;;5052738;28;20180;-69
2022/02/23 04:27:37;;;;;;;7.97;3.70;;;5.70;99.90;;;;;;5051180;28;20662;-68
2022/02/23 04:30:05;;;;;;;5.43;3.20;;;5.70;99.90;;;;;;5051578;28;20467;-69
2022/02/23 04:32:31;;;;;;;14.07;3.60;;;5.70;99.90;;;;;;5051405;28;20441;-70
2022/02/23 04:34:57;;;;;;;11.47;3.80;;;5.70;99.90;;;;;;5052355;28;20434;-68
2022/02/23 04:37:23;;;;;;;7.60;3.13;;;5.70;99.90;;;;;;5077249;22;20484;-68
2022/02/23 04:39:49;;;;;;;15.30;3.87;;;5.70;99.90;;;;;;5064017;28;20631;-67
2022/02/23 04:42:14;;;;;;;7.87;4.90;;;5.60;99.90;;;;;;5071358;28;20418;-68
2022/02/23 04:44:40;;;;;;;7.60;4.73;;;5.60;99.90;;;;;;5054565;28;20171;-68
2022/02/23 04:47:05;;;;;;;11.93;3.87;;;5.60;99.90;;;;;;5072722;28;20195;-68
2022/02/23 04:49:31;;;;;;;9.40;3.80;;;5.60;99.90;;;;;;5059063;28;20235;-68
2022/02/23 04:51:57;;;;;;;8.43;3.77;;;5.50;99.90;;;;;;5051822;28;20208;-69
2022/02/23 04:54:22;;;;;;;9.13;3.50;;;5.50;99.90;;;;;;5053374;28;20191;-68
2022/02/23 04:56:48;;;;;;;11.30;3.97;;;5.60;99.90;;;;;;5053062;28;20588;-68
2022/02/23 04:59:13;;;;;;;49.63;15.73;;;5.60;99.90;;;;;;5062660;28;20204;-68
2022/02/23 05:01:39;;;;;;;40.03;13.93;;;5.60;99.90;;;;;;5055650;28;20247;-68
2022/02/23 05:04:04;;;;;;;24.43;8.67;;;5.60;99.90;;;;;;5054414;28;20205;-68
2022/02/23 05:06:30;;;;;;;9.07;3.97;;;5.70;99.90;;;;;;5054445;28;20179;-68
2022/02/23 05:08:55;;;;;;;10.63;4.23;;;5.70;99.90;;;;;;5053391;28;20718;-69
2022/02/23 05:11:21;;;;;;;9.97;3.70;;;5.70;99.90;;;;;;5053924;28;20183;-68
2022/02/23 05:13:47;;;;;;;12.00;4.70;;;5.60;99.90;;;;;;5052939;28;20191;-69
2022/02/23 05:16:12;;;;;;;8.73;4.10;;;5.60;99.90;;;;;;5053174;28;20442;-67
2022/02/23 05:18:38;;;;;;;7.63;3.20;;;5.50;99.90;;;;;;5052252;28;20635;-68
2022/02/23 05:21:04;;;;;;;9.90;3.60;;;5.40;99.90;;;;;;5036308;28;20589;-69
2022/02/23 05:23:30;;;;;;;10.30;3.83;;;5.40;99.90;;;;;;5035141;28;20210;-68
2022/02/23 05:25:56;;;;;;;9.17;3.80;;;5.40;99.90;;;;;;5054826;28;20203;-68
2022/02/23 05:28:23;;;;;;;17.10;5.13;;;5.40;99.90;;;;;;5055856;28;20441;-68
2022/02/23 05:30:48;;;;;;;11.93;4.50;;;5.40;99.90;;;;;;5056927;28;20471;-69
2022/02/23 05:33:14;;;;;;;16.00;5.07;;;5.50;99.90;;;;;;5038081;28;21065;-69
2022/02/23 05:35:40;;;;;;;12.07;4.17;;;5.50;99.90;;;;;;5055880;28;20210;-68
2022/02/23 05:38:06;;;;;;;12.17;4.93;;;5.50;99.90;;;;;;5055235;28;20458;-68
2022/02/23 05:40:32;;;;;;;11.00;4.47;;;5.60;99.90;;;;;;5056025;28;20192;-68
2022/02/23 05:42:57;;;;;;;13.00;4.40;;;5.50;99.90;;;;;;5056395;28;20483;-68
2022/02/23 05:45:23;;;;;;;11.63;4.50;;;5.40;99.90;;;;;;5055357;28;20637;-69
2022/02/23 05:47:49;;;;;;;12.53;4.10;;;5.40;99.90;;;;;;5055430;28;20223;-68
2022/02/23 05:50:15;;;;;;;9.07;4.80;;;5.50;99.90;;;;;;5055408;28;20180;-69
2022/02/23 05:52:40;;;;;;;11.07;4.90;;;5.40;99.90;;;;;;5056015;28;20267;-69
2022/02/23 05:55:06;;;;;;;10.37;4.63;;;5.40;99.90;;;;;;5055295;28;20180;-69
2022/02/23 05:57:32;;;;;;;14.00;5.77;;;5.50;99.90;;;;;;5055282;28;20458;-68
2022/02/23 05:59:58;;;;;;;16.33;5.50;;;5.50;99.90;;;;;;5054945;28;20470;-68
2022/02/23 06:02:24;;;;;;;7.43;4.57;;;5.60;99.90;;;;;;5054983;28;20899;-67
2022/02/23 06:04:49;;;;;;;12.83;4.50;;;5.60;99.90;;;;;;5073396;28;20187;-69
2022/02/23 06:07:15;;;;;;;9.63;5.17;;;5.50;99.90;;;;;;5074489;28;20203;-68
2022/02/23 06:09:40;;;;;;;12.53;4.40;;;5.50;99.90;;;;;;5074959;28;20258;-68
2022/02/23 06:12:06;;;;;;;7.40;4.50;;;5.50;99.90;;;;;;5074574;28;20670;-69
2022/02/23 06:14:32;;;;;;;10.17;4.70;;;5.50;99.90;;;;;;5073462;28;20205;-68
2022/02/23 06:16:58;;;;;;;8.83;4.83;;;5.50;99.90;;;;;;5056710;28;20187;-68
2022/02/23 06:19:23;;;;;;;7.00;4.57;;;5.50;99.90;;;;;;5074728;28;20215;-68
2022/02/23 06:21:49;;;;;;;10.33;5.63;;;5.50;99.90;;;;;;5069536;28;20521;-69
2022/02/23 06:24:15;;;;;;;8.50;4.40;;;5.50;99.90;;;;;;5054726;28;20235;-68
2022/02/23 06:26:41;;;;;;;11.70;5.67;;;5.50;99.90;;;;;;5055895;28;20188;-68
2022/02/23 06:29:07;;;;;;;9.70;4.30;;;5.40;99.90;;;;;;5054985;28;20969;-69
2022/02/23 06:31:32;;;;;;;14.20;5.20;;;5.40;99.90;;;;;;5047304;28;20728;-68
2022/02/23 06:33:58;;;;;;;17.13;5.90;;;5.40;99.90;;;;;;5058350;28;20273;-68
2022/02/23 06:36:24;;;;;;;7.73;4.83;;;5.40;99.90;;;;;;5035561;28;20219;-69
2022/02/23 06:38:50;;;;;;;15.70;5.43;;;5.40;99.90;;;;;;5053189;28;20215;-67
2022/02/23 06:41:19;;;;;;;15.30;5.00;;;5.40;99.90;;;;;;5053330;28;20975;-69
2022/02/23 06:43:46;;;;;;;17.53;6.17;;;5.40;99.90;;;;;;5053297;28;20833;-69
2022/02/23 06:46:13;;;;;;;13.17;5.30;;;5.30;99.90;;;;;;5052474;28;20565;-69
2022/02/23 06:48:40;;;;;;;14.40;5.80;;;5.40;99.90;;;;;;5060204;28;20447;-68
2022/02/23 06:51:06;;;;;;;10.07;5.20;;;5.40;99.90;;;;;;5054672;28;20466;-68
2022/02/23 06:53:32;;;;;;;14.27;5.97;;;5.50;99.90;;;;;;5052897;28;20484;-67
2022/02/23 06:55:57;;;;;;;11.63;5.73;;;5.60;99.90;;;;;;5052995;28;20944;-69
2022/02/23 06:58:23;;;;;;;8.13;5.10;;;5.60;99.90;;;;;;5054186;28;20228;-69
2022/02/23 07:00:49;;;;;;;11.87;5.57;;;5.50;99.90;;;;;;5053404;28;20590;-68
2022/02/23 07:03:14;;;;;;;11.40;5.80;;;5.40;99.90;;;;;;5052770;28;20199;-69
2022/02/23 07:05:40;;;;;;;12.53;5.77;;;5.40;99.90;;;;;;5052621;28;20692;-69
2022/02/23 07:08:07;;;;;;;13.83;5.60;;;5.50;99.90;;;;;;5053281;28;20196;-68
2022/02/23 07:10:35;;;;;;;12.63;6.07;;;5.40;99.90;;;;;;5045860;28;20469;-69
2022/02/23 07:13:04;;;;;;;12.90;6.77;;;5.30;99.90;;;;;;5052691;28;20502;-69
2022/02/23 07:15:31;;;;;;;12.33;6.10;;;5.40;99.90;;;;;;5052151;28;20454;-68
2022/02/23 07:17:56;;;;;;;10.90;6.83;;;5.40;99.90;;;;;;5052628;28;20445;-68
2022/02/23 07:20:22;;;;;;;14.70;5.43;;;5.40;99.90;;;;;;5053870;28;20480;-70
2022/02/23 07:22:49;;;;;;;15.20;5.27;;;5.40;99.90;;;;;;5051670;28;20214;-69
2022/02/23 07:25:14;;;;;;;17.07;7.10;;;5.40;99.90;;;;;;5052760;28;20195;-68
2022/02/23 07:27:40;;;;;;;9.23;5.80;;;5.50;99.90;;;;;;5034446;28;20465;-69
2022/02/23 07:30:09;;;;;;;13.10;8.00;;;5.50;99.90;;;;;;5034252;28;20652;-69
2022/02/23 07:32:35;;;;;;;11.30;6.30;;;5.60;99.90;;;;;;5068832;28;20502;-68
2022/02/23 07:35:03;;;;;;;14.33;6.57;;;5.60;99.90;;;;;;5073206;28;20445;-69
2022/02/23 07:37:29;;;;;;;10.70;5.60;;;5.60;99.90;;;;;;5072852;28;20344;-70
2022/02/23 07:40:08;;;;;;;11.00;6.17;;;5.60;99.90;;;;;;5071309;28;20484;-70
2022/02/23 07:42:34;;;;;;;9.43;6.30;;;5.60;99.90;;;;;;5060414;28;20297;-68
2022/02/23 07:44:59;;;;;;;13.33;7.87;;;5.70;99.90;;;;;;5059564;28;20473;-68
2022/02/23 07:47:25;;;;;;;14.20;7.40;;;5.70;99.90;;;;;;5074679;28;20230;-70
2022/02/23 07:49:51;;;;;;;12.73;6.80;;;5.80;99.90;;;;;;5076411;28;20322;-70
2022/02/23 07:52:17;;;;;;;11.60;6.60;;;5.80;99.90;;;;;;5053276;28;20918;-69
2022/02/23 07:54:43;;;;;;;16.57;7.37;;;5.80;99.90;;;;;;5059557;28;20442;-70
2022/02/23 07:57:09;;;;;;;13.03;5.17;;;5.80;99.90;;;;;;5059836;28;20480;-70
2022/02/23 07:59:34;;;;;;;23.77;10.40;;;5.80;99.90;;;;;;5060071;28;20478;-69
2022/02/23 08:02:00;;;;;;;13.03;5.47;;;5.90;99.90;;;;;;5055813;28;20230;-69
2022/02/23 08:04:26;;;;;;;13.50;5.90;;;5.90;99.90;;;;;;5063426;28;20220;-68
2022/02/23 08:06:51;;;;;;;15.50;6.03;;;6.00;99.90;;;;;;5052702;28;20284;-69
2022/02/23 08:09:17;;;;;;;11.73;5.20;;;6.10;99.90;;;;;;5040582;28;20194;-69
2022/02/23 08:11:43;;;;;;;15.20;6.17;;;6.20;99.90;;;;;;5061615;28;20200;-69
2022/02/23 08:14:10;;;;;;;12.30;5.93;;;6.20;99.90;;;;;;5062742;28;20177;-69
2022/02/23 08:19:34;;;;;;;12.47;5.50;;;6.30;99.90;;;;;;5063610;28;20454;-69
2022/02/23 08:22:04;;;;;;;8.10;4.43;;;6.30;99.90;;;;;;5064657;28;20420;-68
2022/02/23 08:24:33;;;;;;;10.43;4.53;;;6.30;99.90;;;;;;5057520;28;20769;-68
2022/02/23 08:27:00;;;;;;;9.13;4.53;;;6.40;99.90;;;;;;5054464;28;20415;-69
2022/02/23 08:29:26;;;;;;;16.40;5.33;;;6.50;99.90;;;;;;5053627;28;20411;-69
2022/02/23 08:31:52;;;;;;;10.27;4.87;;;6.60;99.90;;;;;;5052968;28;20505;-68
2022/02/23 08:34:18;;;;;;;13.23;5.67;;;6.60;99.90;;;;;;5038956;28;20197;-68
2022/02/23 08:36:47;;;;;;;11.87;5.87;;;6.70;99.90;;;;;;5057172;28;20433;-69
2022/02/23 08:39:15;;;;;;;9.70;5.50;;;6.70;99.90;;;;;;5069219;28;20464;-68
2022/02/23 08:41:41;;;;;;;9.30;5.10;;;6.80;99.90;;;;;;5074721;28;20401;-68
2022/02/23 08:44:07;;;;;;;11.50;4.97;;;6.80;99.90;;;;;;5073887;28;20409;-68
2022/02/23 08:46:41;;;;;;;15.73;5.03;;;6.90;99.90;;;;;;5074061;28;20440;-68
2022/02/23 08:49:07;;;;;;;10.43;4.73;;;7.00;99.90;;;;;;5071906;28;20216;-68
2022/02/23 08:51:35;;;;;;;7.77;6.00;;;6.90;99.90;;;;;;5073299;28;20420;-69
2022/02/23 08:54:00;;;;;;;13.33;5.23;;;7.00;99.90;;;;;;5073198;28;20415;-70
2022/02/23 08:56:26;;;;;;;11.20;6.40;;;7.00;99.90;;;;;;5073492;28;20413;-67
2022/02/23 08:58:52;;;;;;;12.60;7.00;;;7.00;99.90;;;;;;5071448;28;20212;-66
2022/02/23 09:01:17;;;;;;;10.87;5.93;;;7.10;99.90;;;;;;5061947;28;20181;-68
2022/02/23 09:03:43;;;;;;;18.30;6.33;;;7.10;99.90;;;;;;5056748;28;20172;-68
2022/02/23 09:06:09;;;;;;;11.47;6.87;;;7.20;99.90;;;;;;5057802;28;20177;-69
2022/02/23 09:08:35;;;;;;;12.13;5.10;;;7.30;99.90;;;;;;5057397;28;20434;-68
2022/02/23 09:11:00;;;;;;;15.87;5.30;;;7.30;99.90;;;;;;5058391;28;20791;-69
2022/02/23 09:13:26;;;;;;;15.00;5.17;;;7.40;99.90;;;;;;5057135;28;20185;-68
2022/02/23 09:15:51;;;;;;;11.53;5.63;;;7.40;99.90;;;;;;5056767;28;20668;-70
2022/02/23 09:18:17;;;;;;;11.70;5.20;;;7.40;99.90;;;;;;5057279;28;20196;-68
2022/02/23 09:20:42;;;;;;;12.63;5.20;;;7.50;99.90;;;;;;5062804;28;20209;-68
2022/02/23 09:23:08;;;;;;;10.80;4.77;;;7.60;99.90;;;;;;5075717;28;20213;-68
2022/02/23 09:25:34;;;;;;;8.90;5.13;;;7.70;99.90;;;;;;5076303;28;20256;-69
2022/02/23 09:27:59;;;;;;;13.43;5.17;;;7.70;99.90;;;;;;5075647;28;20223;-69
2022/02/23 09:30:25;;;;;;;12.03;5.30;;;7.70;99.90;;;;;;5075744;28;20276;-69
2022/02/23 09:32:51;;;;;;;7.50;4.70;;;7.80;99.90;;;;;;5073208;28;20178;-68
2022/02/23 09:35:18;;;;;;;11.23;5.37;;;7.90;99.90;;;;;;5076226;28;20251;-69
2022/02/23 09:37:44;;;;;;;11.90;5.97;;;8.00;99.90;;;;;;5058040;28;20754;-69
2022/02/23 09:40:10;;;;;;;16.23;5.30;;;8.00;99.90;;;;;;5076040;28;20541;-69
2022/02/23 09:42:36;;;;;;;10.90;5.80;;;8.10;99.90;;;;;;5056401;28;20543;-66
2022/02/23 09:45:04;;;;;;;14.80;5.40;;;8.10;99.90;;;;;;5076226;28;20414;-68
2022/02/23 09:47:32;;;;;;;10.63;5.13;;;8.10;99.90;;;;;;5076891;28;20193;-68
2022/02/23 09:49:58;;;;;;;13.77;4.73;;;8.10;99.90;;;;;;5074721;28;20423;-67
2022/02/23 09:52:24;;;;;;;9.07;5.40;;;8.20;99.90;;;;;;5075939;28;20412;-68
2022/02/23 09:54:57;;;;;;;8.50;5.13;;;8.30;99.90;;;;;;5076459;28;20411;-68
2022/02/23 09:57:24;;;;;;;11.77;5.17;;;8.40;99.90;;;;;;5076183;28;20447;-69
2022/02/23 09:59:49;;;;;;;10.93;5.70;;;8.30;99.90;;;;;;5072094;28;20502;-68
2022/02/23 10:02:15;;;;;;;12.17;5.67;;;8.40;99.90;;;;;;5057074;28;20420;-69
2022/02/23 10:04:41;;;;;;;9.17;5.27;;;8.50;99.90;;;;;;5038200;28;20185;-69
2022/02/23 10:07:08;;;;;;;9.27;4.70;;;8.60;99.90;;;;;;5055612;28;20421;-69
2022/02/23 10:09:42;;;;;;;11.50;5.10;;;8.60;99.90;;;;;;5055696;28;20455;-69
2022/02/23 10:12:29;;;;;;;13.20;4.70;;;8.60;99.90;;;;;;5056183;28;20431;-68
2022/02/23 10:15:16;;;;;;;11.87;5.87;;;8.70;99.90;;;;;;5056056;28;20510;-69
2022/02/23 10:17:51;;;;;;;14.17;5.70;;;8.60;99.90;;;;;;5037251;28;20437;-68
2022/02/23 10:20:28;;;;;;;11.20;5.10;;;8.80;99.90;;;;;;5055548;28;20504;-68
2022/02/23 10:23:07;;;;;;;9.93;5.10;;;8.90;99.90;;;;;;5056538;28;20422;-69
2022/02/23 10:25:42;;;;;;;10.50;5.40;;;9.00;99.90;;;;;;5055621;28;20411;-69
2022/02/23 10:28:14;;;;;;;6.60;5.40;;;9.00;99.90;;;;;;5037605;28;20432;-69
2022/02/23 10:30:49;;;;;;;8.90;5.07;;;9.10;99.90;;;;;;5056093;28;20424;-69
2022/02/23 10:33:39;;;;;;;7.57;4.60;;;9.10;99.90;;;;;;5054378;28;20413;-70
2022/02/23 10:36:07;;;;;;;8.67;4.73;;;9.20;99.90;;;;;;5042551;28;20475;-68
2022/02/23 10:38:39;;;;;;;12.17;5.67;;;9.30;99.90;;;;;;5063824;28;20482;-69
2022/02/23 10:41:07;;;;;;;10.53;5.00;;;9.50;99.90;;;;;;5074782;28;20482;-68
2022/02/23 10:43:36;;;;;;;11.77;5.30;;;9.50;99.90;;;;;;5073998;28;20503;-66
2022/02/23 10:46:03;;;;;;;9.30;5.30;;;9.50;99.90;;;;;;5074652;28;20404;-67
2022/02/23 10:48:40;;;;;;;11.50;5.40;;;9.60;99.90;;;;;;5072937;28;20431;-66
2022/02/23 10:51:14;;;;;;;7.53;5.37;;;9.60;99.90;;;;;;5073897;28;20415;-68
2022/02/23 10:53:39;;;;;;;6.67;5.20;;;9.60;99.90;;;;;;5074087;28;20835;-69
2022/02/23 10:56:20;;;;;;;9.93;4.80;;;9.50;99.90;;;;;;5074507;28;20486;-67
2022/02/23 10:58:46;;;;;;;12.70;4.80;;;9.60;99.90;;;;;;5071925;28;20292;-68
2022/02/23 11:01:12;;;;;;;9.60;3.80;;;9.70;99.90;;;;;;5058673;28;20978;-67
2022/02/23 11:03:38;;;;;;;8.20;4.27;;;9.70;99.90;;;;;;5035856;28;20188;-68
2022/02/23 11:06:04;;;;;;;7.27;3.63;;;9.80;99.90;;;;;;5054427;28;20797;-69
2022/02/23 11:08:30;;;;;;;10.77;4.97;;;9.90;99.90;;;;;;5054085;28;20505;-69
2022/02/23 11:10:56;;;;;;;7.67;3.60;;;9.90;99.90;;;;;;5054731;28;20516;-68
2022/02/23 11:13:23;;;;;;;6.27;3.40;;;9.80;99.90;;;;;;5053879;28;20428;-69
2022/02/23 11:15:52;;;;;;;7.90;3.50;;;9.80;99.90;;;;;;5054212;28;20842;-68
2022/02/23 11:18:21;;;;;;;8.67;3.40;;;9.90;99.90;;;;;;5053502;28;20455;-69
2022/02/23 11:20:49;;;;;;;9.03;3.87;;;10.10;99.90;;;;;;5055036;28;20996;-68
2022/02/23 11:23:21;;;;;;;6.77;3.43;;;10.10;99.90;;;;;;5053748;28;20413;-68
2022/02/23 11:25:50;;;;;;;9.20;3.30;;;10.30;99.90;;;;;;5054294;28;20484;-68
2022/02/23 11:28:30;;;;;;;5.10;2.80;;;10.50;99.90;;;;;;5053472;28;20429;-67
2022/02/23 11:31:05;;;;;;;6.70;2.67;;;10.50;99.90;;;;;;5056767;28;20428;-67
2022/02/23 11:33:49;;;;;;;8.63;3.23;;;10.50;99.90;;;;;;5072912;28;20411;-68
2022/02/23 11:36:34;;;;;;;9.73;2.63;;;10.60;99.90;;;;;;5074091;28;20467;-68
2022/02/23 11:39:02;;;;;;;8.43;2.60;;;10.50;99.90;;;;;;5073374;28;20465;-68
2022/02/23 11:41:31;;;;;;;6.60;2.63;;;10.60;99.90;;;;;;5071891;28;20425;-68
2022/02/23 11:44:17;;;;;;;5.93;2.17;;;10.50;99.90;;;;;;5073105;28;20397;-67
2022/02/23 11:47:10;;;;;;;3.67;1.60;;;10.50;98.40;;;;;;5073101;28;20450;-69
2022/02/23 11:52:41;;;;;;;4.93;2.53;;;10.40;99.00;;;;;;5071570;28;20470;-68
2022/02/23 11:58:09;;;;;;;8.30;2.20;;;10.40;98.20;;;;;;5073770;28;20482;-69
2022/02/23 12:03:23;;;;;;;4.93;2.90;;;10.50;98.20;;;;;;5054236;28;20198;-70
2022/02/23 12:05:56;;;;;;;4.73;2.20;;;10.50;98.40;;;;;;5053312;28;20555;-68
2022/02/23 12:08:47;;;;;;;6.60;2.10;;;10.50;98.90;;;;;;5053693;28;20433;-68
2022/02/23 12:11:18;;;;;;;6.97;2.17;;;10.60;99.10;;;;;;5052108;28;20425;-69
2022/02/23 12:13:51;;;;;;;5.63;2.40;;;10.50;98.70;;;;;;5056234;28;20952;-68
2022/02/23 12:16:28;;;;;;;3.97;2.30;;;10.60;99.40;;;;;;5055426;28;20409;-69
2022/02/23 12:18:59;;;;;;;4.93;2.03;;;10.60;99.60;;;;;;5035431;28;20459;-68
2022/02/23 12:21:44;;;;;;;6.60;2.67;;;10.60;98.70;;;;;;5035031;28;20518;-68
2022/02/23 12:24:18;;;;;;;4.80;2.17;;;10.60;98.00;;;;;;5053400;28;20429;-70
2022/02/23 12:26:47;;;;;;;4.00;2.10;;;10.50;96.60;;;;;;5051368;28;20420;-72
2022/02/23 12:29:18;;;;;;;3.63;1.97;;;10.60;97.90;;;;;;5052670;28;20937;-70
2022/02/23 12:31:45;;;;;;;5.63;2.97;;;10.60;99.20;;;;;;5052679;28;20472;-69
2022/02/23 12:34:18;;;;;;;5.13;2.80;;;10.60;97.80;;;;;;5053467;28;20495;-68
2022/02/23 12:36:50;;;;;;;5.10;2.13;;;10.60;97.90;;;;;;5071019;28;20432;-67
2022/02/23 12:39:23;;;;;;;4.20;1.90;;;10.60;97.30;;;;;;5057215;28;20909;-69
2022/02/23 12:41:56;;;;;;;6.10;1.70;;;10.60;96.60;;;;;;5052715;28;20417;-68
2022/02/23 12:44:23;;;;;;;5.47;1.57;;;10.60;96.50;;;;;;5034878;28;20468;-68
2022/02/23 12:46:55;;;;;;;4.83;1.87;;;10.50;96.50;;;;;;5052732;28;20461;-68
2022/02/23 12:49:22;;;;;;;6.00;1.93;;;10.50;96.40;;;;;;5035679;28;20437;-67
2022/02/23 12:51:49;;;;;;;2.87;1.50;;;10.50;95.30;;;;;;5034622;28;20433;-68
2022/02/23 12:54:18;;;;;;;4.23;1.73;;;10.50;95.80;;;;;;5053378;28;20787;-67
2022/02/23 12:56:49;;;;;;;4.30;1.90;;;10.50;96.20;;;;;;5053472;28;20453;-68
2022/02/23 12:59:23;;;;;;;3.03;1.50;;;10.50;96.00;;;;;;5054454;28;20485;-68
2022/02/23 13:01:54;;;;;;;4.90;1.57;;;10.40;94.90;;;;;;5033685;28;20424;-69